Time;durP1;ratioP1;P1;durP2;ratioP2;P2;SDS_P1;SDS_P2;PMS_P1;PMS_P2;Temp;Humidity;BMP_temperature;BMP_pressure;BME280_temperature;BME280_humidity;BME280_pressure;Samples;Min_cycle;Max_cycle;Signal;HPM_P1;HPM_P2
2022/01/02 00:01:57;;;;;;;7.30;6.60;;;14.50;99.90;;;;;;5054238;28;20484;-66
2022/01/02 00:04:24;;;;;;;5.00;4.53;;;14.60;99.90;;;;;;5067745;28;20555;-66
2022/01/02 00:06:52;;;;;;;4.50;4.10;;;14.60;99.90;;;;;;5072980;28;20424;-66
2022/01/02 00:09:31;;;;;;;4.20;3.80;;;14.60;99.90;;;;;;5074036;28;20425;-66
2022/01/02 00:12:11;;;;;;;4.37;3.87;;;14.70;99.90;;;;;;5072792;28;20424;-66
2022/01/02 00:14:43;;;;;;;4.47;4.17;;;14.70;99.90;;;;;;5072129;28;20437;-66
2022/01/02 00:17:09;;;;;;;4.77;4.00;;;14.60;99.90;;;;;;5074212;28;20424;-66
2022/01/02 00:19:39;;;;;;;4.57;4.20;;;14.50;99.90;;;;;;5073673;28;20431;-66
2022/01/02 00:22:13;;;;;;;4.37;3.97;;;14.60;99.90;;;;;;5075043;28;20413;-66
2022/01/02 00:24:44;;;;;;;5.13;4.73;;;14.60;99.70;;;;;;5072633;28;20467;-66
2022/01/02 00:27:13;;;;;;;4.47;4.17;;;14.60;99.80;;;;;;5074477;28;20408;-66
2022/01/02 00:29:40;;;;;;;4.47;4.17;;;14.70;99.60;;;;;;5073410;28;20401;-66
2022/01/02 00:32:08;;;;;;;4.13;3.83;;;14.70;99.50;;;;;;5074092;28;20424;-65
2022/01/02 00:34:35;;;;;;;4.70;4.37;;;14.80;99.40;;;;;;5073392;28;20412;-72
2022/01/02 00:37:02;;;;;;;4.67;4.30;;;14.80;99.30;;;;;;5073968;28;20416;-65
2022/01/02 00:39:29;;;;;;;4.07;3.77;;;14.90;99.00;;;;;;5072860;28;20468;-66
2022/01/02 00:41:57;;;;;;;4.47;4.10;;;14.90;99.00;;;;;;5072696;28;20932;-66
2022/01/02 00:44:32;;;;;;;4.47;4.10;;;14.90;98.70;;;;;;5074044;28;20452;-66
2022/01/02 00:47:17;;;;;;;4.13;3.83;;;14.90;98.60;;;;;;5074009;28;20489;-66
2022/01/02 00:49:58;;;;;;;4.87;4.47;;;14.90;98.90;;;;;;5072207;28;20441;-66
2022/01/02 00:52:26;;;;;;;4.60;4.20;;;14.90;98.60;;;;;;5072772;28;20920;-66
2022/01/02 00:54:56;;;;;;;4.30;4.00;;;14.90;98.60;;;;;;5073309;28;20421;-65
2022/01/02 00:57:31;;;;;;;4.77;4.40;;;14.70;98.70;;;;;;5073845;28;20444;-66
2022/01/02 01:00:16;;;;;;;4.03;3.73;;;14.70;98.80;;;;;;5073349;28;20880;-66
2022/01/02 01:02:47;;;;;;;4.90;4.60;;;14.60;99.20;;;;;;5072816;28;20768;-65
2022/01/02 01:05:34;;;;;;;4.90;4.50;;;14.60;99.20;;;;;;5073487;28;20511;-66
2022/01/02 01:08:05;;;;;;;4.60;4.20;;;14.50;99.40;;;;;;5073387;28;20396;-65
2022/01/02 01:10:33;;;;;;;4.60;4.20;;;14.50;99.40;;;;;;5088557;28;20422;-70
2022/01/02 01:13:03;;;;;;;4.37;4.07;;;14.50;99.30;;;;;;5093604;28;20421;-66
2022/01/02 01:15:30;;;;;;;4.47;4.13;;;14.50;99.50;;;;;;5093692;28;20419;-65
2022/01/02 01:17:58;;;;;;;4.30;3.90;;;14.50;99.60;;;;;;5055034;28;20507;-66
2022/01/02 01:20:27;;;;;;;3.90;3.60;;;14.50;99.50;;;;;;5053460;28;20422;-66
2022/01/02 01:22:53;;;;;;;4.40;4.10;;;14.40;99.60;;;;;;5052426;28;20474;-65
2022/01/02 01:25:21;;;;;;;4.73;4.27;;;14.40;99.70;;;;;;5053327;28;20460;-66
2022/01/02 01:27:49;;;;;;;4.73;4.43;;;14.50;99.70;;;;;;5052331;28;20415;-65
2022/01/02 01:30:17;;;;;;;4.10;3.80;;;14.50;99.60;;;;;;5053028;28;20536;-65
2022/01/02 01:32:44;;;;;;;4.43;4.10;;;14.50;99.60;;;;;;5052448;28;20427;-66
2022/01/02 01:35:10;;;;;;;4.10;3.90;;;14.60;99.50;;;;;;5053254;28;20416;-67
2022/01/02 01:37:36;;;;;;;6.43;4.10;;;14.60;99.30;;;;;;5062450;28;20462;-72
2022/01/02 01:40:04;;;;;;;4.47;4.17;;;14.60;99.20;;;;;;5053245;28;20735;-66
2022/01/02 01:42:42;;;;;;;4.20;3.90;;;14.70;99.20;;;;;;5053172;28;20436;-66
2022/01/02 01:47:46;;;;;;;4.33;3.97;;;14.80;98.80;;;;;;5052325;28;20468;-66
2022/01/02 01:50:12;;;;;;;3.80;3.60;;;14.70;98.80;;;;;;5053230;28;20421;-66
2022/01/02 01:52:38;;;;;;;4.90;4.50;;;14.70;98.70;;;;;;5070453;28;20417;-68
2022/01/02 01:55:06;;;;;;;4.90;4.17;;;14.80;98.80;;;;;;5070196;28;20428;-68
2022/01/02 01:57:32;;;;;;;4.90;4.53;;;14.90;99.90;;;;;;5070567;28;20790;-69
2022/01/02 01:59:58;;;;;;;4.70;4.30;;;15.00;99.90;;;;;;5070632;28;20425;-67
2022/01/02 02:02:24;;;;;;;4.37;4.07;;;15.10;99.70;;;;;;5071338;28;20448;-67
2022/01/02 02:04:50;;;;;;;6.17;4.47;;;15.10;98.60;;;;;;5066567;28;20459;-68
2022/01/02 02:07:16;;;;;;;4.40;4.10;;;15.20;98.20;;;;;;5070952;28;20897;-67
2022/01/02 02:12:26;;;;;;;4.87;4.47;;;15.20;98.00;;;;;;5069477;28;20422;-67
2022/01/02 02:14:53;;;;;;;4.40;4.10;;;15.20;97.80;;;;;;5068987;28;20790;-67
2022/01/02 02:17:19;;;;;;;4.10;3.80;;;15.20;97.80;;;;;;5050370;28;20425;-67
2022/01/02 02:19:46;;;;;;;7.73;3.50;;;15.10;97.60;;;;;;5069674;28;20426;-67
2022/01/02 02:22:12;;;;;;;3.60;3.40;;;15.20;97.70;;;;;;5072473;28;20526;-67
2022/01/02 02:24:40;;;;;;;4.00;3.70;;;15.20;97.70;;;;;;5070711;28;20448;-71
2022/01/02 02:27:06;;;;;;;3.90;3.60;;;15.20;97.70;;;;;;5071679;28;20430;-67
2022/01/02 02:29:32;;;;;;;4.47;3.80;;;15.20;97.80;;;;;;5071514;28;20966;-67
2022/01/02 02:31:58;;;;;;;4.90;4.20;;;15.20;97.70;;;;;;5070145;28;20287;-67
2022/01/02 02:34:24;;;;;;;5.27;4.23;;;15.20;97.90;;;;;;5070608;28;20423;-67
2022/01/02 02:36:50;;;;;;;5.00;4.37;;;15.30;97.90;;;;;;5068349;28;20533;-67
2022/01/02 02:39:15;;;;;;;4.43;4.03;;;15.20;97.90;;;;;;5070958;28;20187;-68
2022/01/02 02:41:43;;;;;;;4.67;4.27;;;15.20;98.10;;;;;;5071213;28;20194;-67
2022/01/02 02:44:20;;;;;;;4.60;4.20;;;15.20;98.60;;;;;;5071583;28;20208;-67
2022/01/02 02:49:30;;;;;;;5.23;4.47;;;15.20;98.30;;;;;;5072316;28;20405;-67
2022/01/02 02:52:05;;;;;;;4.83;4.27;;;15.20;98.30;;;;;;5054677;28;20507;-67
2022/01/02 02:54:32;;;;;;;4.33;4.03;;;15.20;98.40;;;;;;5052812;28;20582;-67
2022/01/02 02:56:59;;;;;;;4.70;4.10;;;15.20;98.60;;;;;;5071063;28;20414;-67
2022/01/02 02:59:28;;;;;;;4.47;4.07;;;15.20;98.70;;;;;;5071948;28;20415;-66
2022/01/02 03:01:54;;;;;;;8.50;4.43;;;15.30;98.90;;;;;;5071199;28;20426;-65
2022/01/02 03:04:21;;;;;;;6.73;4.50;;;15.20;98.90;;;;;;5072133;28;20945;-65
2022/01/02 03:06:47;;;;;;;5.43;4.57;;;15.20;99.00;;;;;;5057336;28;20430;-65
2022/01/02 03:09:13;;;;;;;4.80;4.50;;;15.10;99.00;;;;;;5051882;28;20631;-67
2022/01/02 03:11:41;;;;;;;6.73;4.70;;;15.10;98.90;;;;;;5051409;28;20933;-72
2022/01/02 03:14:10;;;;;;;4.90;4.50;;;15.10;99.00;;;;;;5056565;28;20444;-67
2022/01/02 03:16:37;;;;;;;4.33;4.10;;;15.10;99.10;;;;;;5070936;28;20434;-67
2022/01/02 03:19:03;;;;;;;4.30;4.00;;;15.10;99.20;;;;;;5070382;28;20983;-67
2022/01/02 03:21:29;;;;;;;5.40;4.13;;;15.10;99.20;;;;;;5069758;28;20483;-68
2022/01/02 03:23:55;;;;;;;4.77;4.27;;;15.10;99.10;;;;;;5070655;28;20923;-67
2022/01/02 03:26:21;;;;;;;5.00;4.50;;;15.10;98.90;;;;;;5071546;28;20180;-67
2022/01/02 03:28:46;;;;;;;5.40;4.43;;;15.10;99.20;;;;;;5070760;28;20475;-67
2022/01/02 03:31:13;;;;;;;4.93;4.53;;;15.10;99.20;;;;;;5071140;28;20408;-67
2022/01/02 03:33:39;;;;;;;6.57;4.77;;;15.10;99.30;;;;;;5075635;28;20620;-73
2022/01/02 03:36:06;;;;;;;6.30;4.70;;;15.10;99.20;;;;;;5067269;28;20429;-67
2022/01/02 03:38:32;;;;;;;4.70;4.30;;;15.10;99.10;;;;;;5055477;28;20417;-67
2022/01/02 03:40:58;;;;;;;4.90;4.43;;;15.10;99.20;;;;;;5054399;28;21309;-68
2022/01/02 03:43:24;;;;;;;4.63;4.23;;;15.20;99.20;;;;;;5055124;28;20426;-67
2022/01/02 03:45:49;;;;;;;4.27;3.97;;;15.10;99.10;;;;;;5073122;28;20233;-67
2022/01/02 03:48:15;;;;;;;5.00;4.50;;;15.20;99.10;;;;;;5074012;28;20440;-67
2022/01/02 03:50:41;;;;;;;5.70;4.63;;;15.10;99.20;;;;;;5074767;28;20180;-72
2022/01/02 03:53:07;;;;;;;4.97;4.47;;;15.20;99.20;;;;;;5075333;28;20183;-67
2022/01/02 03:55:33;;;;;;;4.80;4.40;;;15.20;99.20;;;;;;5075128;28;20408;-67
2022/01/02 03:57:59;;;;;;;5.40;4.90;;;15.20;99.30;;;;;;5074354;28;20271;-67
2022/01/02 04:00:25;;;;;;;5.63;5.13;;;15.10;99.30;;;;;;5075034;28;20501;-67
2022/01/02 04:02:51;;;;;;;5.50;4.80;;;15.20;99.50;;;;;;5073021;28;20171;-68
2022/01/02 04:05:17;;;;;;;4.40;4.10;;;15.20;99.40;;;;;;5072458;28;20243;-67
2022/01/02 04:07:44;;;;;;;5.00;4.60;;;15.20;99.50;;;;;;5053090;28;20198;-72
2022/01/02 04:10:12;;;;;;;5.23;4.47;;;15.20;99.60;;;;;;5068018;28;20441;-67
2022/01/02 04:12:38;;;;;;;4.63;4.13;;;15.20;99.90;;;;;;5074611;28;20420;-67
2022/01/02 04:15:07;;;;;;;4.60;4.23;;;15.30;99.90;;;;;;5073989;28;20421;-67
2022/01/02 04:17:34;;;;;;;4.40;4.00;;;15.30;99.90;;;;;;5074916;28;20428;-67
2022/01/02 04:20:00;;;;;;;6.03;4.57;;;15.20;99.90;;;;;;5073688;28;20420;-67
2022/01/02 04:22:26;;;;;;;6.27;4.57;;;15.20;99.90;;;;;;5073142;28;20417;-68
2022/01/02 04:24:52;;;;;;;5.57;4.20;;;15.20;99.90;;;;;;5073650;28;20859;-67
2022/01/02 04:27:19;;;;;;;6.10;4.40;;;15.20;99.90;;;;;;5073005;28;20590;-67
2022/01/02 04:29:45;;;;;;;4.27;3.90;;;15.20;99.90;;;;;;5073709;28;20170;-72
2022/01/02 04:32:11;;;;;;;4.80;4.40;;;15.20;99.90;;;;;;5074864;28;20421;-67
2022/01/02 04:34:37;;;;;;;5.00;4.47;;;15.20;99.90;;;;;;5074227;28;20425;-67
2022/01/02 04:37:04;;;;;;;4.97;3.93;;;15.20;99.90;;;;;;5057439;28;20476;-67
2022/01/02 04:39:32;;;;;;;4.53;4.13;;;15.10;99.90;;;;;;5074557;28;20182;-67
2022/01/02 04:41:58;;;;;;;5.70;4.50;;;15.10;99.90;;;;;;5072696;28;20416;-67
2022/01/02 04:44:23;;;;;;;6.90;4.50;;;15.00;99.90;;;;;;5073983;28;20476;-67
2022/01/02 04:46:49;;;;;;;7.83;4.80;;;15.00;99.90;;;;;;5073445;28;20461;-68
2022/01/02 04:49:15;;;;;;;5.57;4.23;;;15.10;99.90;;;;;;5072922;28;20176;-67
2022/01/02 04:51:41;;;;;;;4.70;4.40;;;15.10;99.90;;;;;;5074183;28;20258;-67
2022/01/02 04:54:06;;;;;;;5.27;4.33;;;15.10;99.90;;;;;;5073160;28;20183;-67
2022/01/02 04:56:32;;;;;;;4.90;4.40;;;15.10;99.90;;;;;;5074033;28;20185;-67
2022/01/02 04:58:58;;;;;;;5.10;4.30;;;15.10;99.90;;;;;;5057779;28;20212;-68
2022/01/02 05:01:24;;;;;;;5.50;5.00;;;15.10;99.90;;;;;;5053771;28;20234;-67
2022/01/02 05:03:49;;;;;;;9.10;4.57;;;15.20;99.90;;;;;;5051752;28;20265;-68
2022/01/02 05:06:15;;;;;;;4.90;4.50;;;15.20;99.90;;;;;;5064928;28;20180;-67
2022/01/02 05:08:44;;;;;;;10.83;6.87;;;15.20;99.90;;;;;;5072432;28;20538;-67
2022/01/02 05:11:10;;;;;;;8.07;5.13;;;15.20;99.90;;;;;;5073337;28;20188;-67
2022/01/02 05:13:35;;;;;;;7.83;4.80;;;15.20;99.90;;;;;;5073345;28;20420;-67
2022/01/02 05:16:01;;;;;;;6.03;5.53;;;15.20;99.90;;;;;;5073105;28;20427;-67
2022/01/02 05:18:27;;;;;;;7.47;5.50;;;15.10;99.90;;;;;;5073590;28;20175;-67
2022/01/02 05:20:53;;;;;;;7.00;5.67;;;15.20;99.90;;;;;;5072975;28;20176;-65
2022/01/02 05:23:21;;;;;;;6.60;4.80;;;15.10;99.90;;;;;;5073254;28;20183;-65
2022/01/02 05:25:47;;;;;;;8.10;5.33;;;15.10;99.90;;;;;;5071287;28;20460;-72
2022/01/02 05:28:13;;;;;;;6.33;4.97;;;15.10;99.90;;;;;;5072829;28;20441;-65
2022/01/02 05:30:40;;;;;;;7.20;5.77;;;15.10;99.90;;;;;;5073679;28;20175;-65
2022/01/02 05:33:06;;;;;;;8.20;4.60;;;15.10;99.90;;;;;;5072242;28;20249;-65
2022/01/02 05:35:32;;;;;;;6.37;4.73;;;15.10;99.90;;;;;;5073253;28;20410;-65
2022/01/02 05:38:01;;;;;;;7.87;5.77;;;15.10;99.90;;;;;;5072384;28;20912;-65
2022/01/02 05:40:32;;;;;;;5.30;4.80;;;15.10;99.90;;;;;;5072863;28;20425;-65
2022/01/02 05:42:59;;;;;;;10.60;6.90;;;15.10;99.90;;;;;;5072440;28;20733;-65
2022/01/02 05:45:24;;;;;;;5.40;4.43;;;15.00;99.90;;;;;;5072707;28;20495;-65
2022/01/02 05:47:50;;;;;;;8.67;6.33;;;15.00;99.90;;;;;;5072254;28;20398;-66
2022/01/02 05:50:16;;;;;;;10.00;7.50;;;15.00;99.90;;;;;;5072927;28;20407;-65
2022/01/02 05:52:42;;;;;;;8.27;5.57;;;15.00;99.90;;;;;;5073198;28;20255;-65
2022/01/02 05:55:07;;;;;;;5.50;4.90;;;15.10;99.90;;;;;;5071104;28;20174;-68
2022/01/02 05:57:33;;;;;;;8.10;6.27;;;15.10;99.90;;;;;;5071250;28;20222;-69
2022/01/02 05:59:59;;;;;;;5.87;5.30;;;15.30;99.90;;;;;;5070514;28;20432;-69
2022/01/02 06:02:25;;;;;;;5.60;5.10;;;15.50;99.90;;;;;;5071430;28;20836;-69
2022/01/02 06:04:50;;;;;;;5.20;4.80;;;15.70;99.90;;;;;;5071625;28;20211;-76
2022/01/02 06:07:16;;;;;;;9.40;4.50;;;15.90;99.90;;;;;;5072555;28;20651;-67
2022/01/02 06:09:42;;;;;;;5.73;4.47;;;16.10;99.90;;;;;;5071648;28;20306;-67
2022/01/02 06:12:08;;;;;;;4.50;4.20;;;16.30;99.90;;;;;;5061271;28;20424;-67
2022/01/02 06:14:34;;;;;;;4.90;4.50;;;16.20;99.90;;;;;;5052405;28;20181;-67
2022/01/02 06:16:59;;;;;;;7.50;5.03;;;16.10;99.90;;;;;;5051527;28;20416;-67
2022/01/02 06:19:25;;;;;;;5.30;4.83;;;16.10;99.90;;;;;;5052907;28;20610;-67
2022/01/02 06:21:51;;;;;;;8.27;7.20;;;15.90;99.90;;;;;;5051878;28;20238;-77
2022/01/02 06:24:17;;;;;;;6.00;5.40;;;15.80;99.90;;;;;;5052359;28;20208;-68
2022/01/02 06:26:43;;;;;;;6.87;5.00;;;15.70;99.90;;;;;;5069462;28;20441;-67
2022/01/02 06:29:09;;;;;;;5.27;4.80;;;15.60;99.90;;;;;;5070203;28;20430;-67
2022/01/02 06:31:35;;;;;;;6.60;5.33;;;15.50;99.90;;;;;;5072366;28;20211;-67
2022/01/02 06:34:00;;;;;;;7.43;5.40;;;15.50;99.90;;;;;;5071552;28;20189;-67
2022/01/02 06:36:26;;;;;;;8.30;5.50;;;15.40;99.90;;;;;;5072381;28;20285;-67
2022/01/02 06:38:52;;;;;;;8.40;5.27;;;15.20;99.90;;;;;;5070424;28;20687;-77
2022/01/02 06:41:18;;;;;;;6.87;4.97;;;15.00;99.90;;;;;;5070421;28;20174;-67
2022/01/02 06:43:43;;;;;;;5.43;4.93;;;14.50;99.90;;;;;;5071976;28;20179;-67
2022/01/02 06:46:10;;;;;;;5.80;5.30;;;14.40;99.90;;;;;;5071190;28;20229;-67
2022/01/02 06:48:36;;;;;;;5.27;4.87;;;14.40;99.90;;;;;;5072486;28;20256;-67
2022/01/02 06:51:02;;;;;;;5.20;4.80;;;14.40;99.90;;;;;;5070077;28;20438;-67
2022/01/02 06:53:27;;;;;;;6.17;5.50;;;14.40;99.90;;;;;;5059256;28;20444;-67
2022/01/02 06:55:53;;;;;;;5.70;5.20;;;14.50;99.90;;;;;;5058981;28;20923;-77
2022/01/02 06:58:19;;;;;;;8.23;5.20;;;14.50;99.90;;;;;;5064466;28;20217;-66
2022/01/02 07:00:45;;;;;;;4.93;4.60;;;14.50;99.90;;;;;;5068637;28;20639;-66
2022/01/02 07:03:11;;;;;;;6.13;5.57;;;14.50;99.90;;;;;;5069898;28;20807;-66
2022/01/02 07:05:36;;;;;;;5.70;5.20;;;14.50;99.90;;;;;;5053310;28;20602;-66
2022/01/02 07:08:02;;;;;;;5.77;5.27;;;14.50;99.90;;;;;;5053143;28;20170;-68
2022/01/02 07:10:28;;;;;;;5.97;5.47;;;14.50;99.90;;;;;;5060757;28;20188;-67
2022/01/02 07:12:54;;;;;;;9.93;7.03;;;14.50;99.90;;;;;;5060775;28;20192;-76
2022/01/02 07:15:19;;;;;;;7.23;6.27;;;14.50;99.90;;;;;;5060539;28;20190;-69
2022/01/02 07:17:45;;;;;;;9.20;5.73;;;14.60;99.90;;;;;;5074957;28;20265;-69
2022/01/02 07:20:12;;;;;;;9.20;5.50;;;14.80;99.90;;;;;;5061862;28;20439;-69
2022/01/02 07:22:42;;;;;;;6.00;5.60;;;14.90;99.90;;;;;;5068767;28;20904;-69
2022/01/02 07:25:10;;;;;;;5.70;5.30;;;14.90;99.90;;;;;;5074575;28;20448;-69
2022/01/02 07:27:36;;;;;;;6.90;5.53;;;14.90;99.90;;;;;;5075373;28;20458;-69
2022/01/02 07:30:03;;;;;;;6.53;5.87;;;14.90;99.90;;;;;;5069054;28;20459;-69
2022/01/02 07:32:29;;;;;;;6.70;6.00;;;14.90;99.90;;;;;;5073245;28;20182;-69
2022/01/02 07:34:54;;;;;;;5.70;5.10;;;15.00;99.90;;;;;;5067358;28;21044;-77
2022/01/02 07:37:20;;;;;;;6.87;5.30;;;14.90;99.90;;;;;;5063390;28;20190;-69
2022/01/02 07:39:46;;;;;;;7.83;5.67;;;15.00;99.90;;;;;;5064133;28;20699;-69
2022/01/02 07:42:12;;;;;;;5.67;5.27;;;15.20;99.90;;;;;;5069202;28;20192;-69
2022/01/02 07:44:38;;;;;;;5.40;4.90;;;15.40;99.90;;;;;;5062823;28;20207;-69
2022/01/02 07:47:07;;;;;;;5.20;4.70;;;15.00;99.90;;;;;;5073723;28;20650;-69
2022/01/02 07:49:33;;;;;;;5.17;4.67;;;14.70;99.90;;;;;;5059677;28;20429;-69
2022/01/02 07:51:59;;;;;;;5.77;5.33;;;14.30;99.90;;;;;;5074226;28;20429;-69
2022/01/02 07:54:25;;;;;;;10.87;6.27;;;13.80;99.90;;;;;;5083740;28;20427;-68
2022/01/02 07:56:50;;;;;;;7.50;5.53;;;13.60;99.90;;;;;;5051352;28;20184;-68
2022/01/02 07:59:16;;;;;;;6.63;5.60;;;13.30;99.90;;;;;;5058889;28;20182;-68
2022/01/02 08:01:42;;;;;;;6.20;5.60;;;13.20;99.90;;;;;;5074654;28;20543;-70
2022/01/02 08:04:07;;;;;;;6.53;4.70;;;13.10;99.90;;;;;;5072997;28;20559;-68
2022/01/02 08:06:33;;;;;;;5.83;5.33;;;13.30;99.90;;;;;;5060003;28;20263;-68
2022/01/02 08:09:00;;;;;;;7.27;6.47;;;14.00;99.90;;;;;;5053023;28;20181;-69
2022/01/02 08:11:25;;;;;;;5.70;5.10;;;14.40;99.90;;;;;;5054767;28;20189;-68
2022/01/02 08:13:51;;;;;;;6.80;5.07;;;14.70;99.90;;;;;;5055060;28;20417;-68
2022/01/02 08:16:17;;;;;;;5.57;5.13;;;15.30;99.90;;;;;;5054233;28;20187;-66
2022/01/02 08:18:46;;;;;;;7.60;6.00;;;15.60;99.90;;;;;;5054250;28;20180;-67
2022/01/02 08:21:11;;;;;;;5.97;5.37;;;15.50;99.90;;;;;;5062162;28;20271;-67
2022/01/02 08:23:37;;;;;;;4.70;4.20;;;15.40;99.90;;;;;;5071431;28;20830;-67
2022/01/02 08:26:03;;;;;;;5.30;4.90;;;15.40;99.90;;;;;;5073664;28;20222;-67
2022/01/02 08:28:29;;;;;;;4.80;4.40;;;15.10;99.90;;;;;;5072070;28;20635;-67
2022/01/02 08:30:54;;;;;;;9.93;5.20;;;14.80;99.90;;;;;;5071058;28;20436;-71
2022/01/02 08:33:20;;;;;;;5.93;5.43;;;14.40;99.90;;;;;;5069388;28;20236;-67
2022/01/02 08:35:48;;;;;;;6.17;5.20;;;14.20;99.90;;;;;;5073915;28;20185;-67
2022/01/02 08:38:14;;;;;;;5.87;5.23;;;14.10;99.90;;;;;;5066991;28;20184;-67
2022/01/02 08:40:40;;;;;;;11.07;7.87;;;14.00;99.90;;;;;;5059955;28;20427;-67
2022/01/02 08:43:07;;;;;;;5.37;4.87;;;14.00;99.90;;;;;;5070709;28;20923;-67
2022/01/02 08:45:36;;;;;;;5.70;5.10;;;13.90;99.90;;;;;;5053941;28;20487;-67
2022/01/02 08:48:03;;;;;;;5.83;4.97;;;14.00;99.90;;;;;;5072972;28;20434;-68
2022/01/02 08:50:28;;;;;;;5.10;4.70;;;13.70;99.90;;;;;;5073971;28;20753;-68
2022/01/02 08:52:54;;;;;;;4.70;4.30;;;13.60;99.90;;;;;;5073114;28;20427;-68
2022/01/02 08:55:20;;;;;;;4.73;4.30;;;13.50;99.90;;;;;;5060523;28;20590;-69
2022/01/02 08:57:46;;;;;;;4.77;4.47;;;13.50;99.90;;;;;;5052946;28;20179;-68
2022/01/02 09:00:12;;;;;;;5.10;4.60;;;13.60;99.90;;;;;;5053911;28;20196;-68
2022/01/02 09:02:38;;;;;;;5.07;4.57;;;13.60;99.90;;;;;;5059147;28;20583;-69
2022/01/02 09:05:04;;;;;;;4.50;4.10;;;13.70;99.90;;;;;;5071662;28;20504;-69
2022/01/02 09:07:30;;;;;;;6.10;4.40;;;13.80;99.90;;;;;;5069795;28;20607;-68
2022/01/02 09:09:56;;;;;;;5.80;5.30;;;13.80;99.90;;;;;;5064143;28;20462;-69
2022/01/02 09:12:22;;;;;;;5.50;5.00;;;14.00;99.90;;;;;;5063259;28;20454;-68
2022/01/02 09:14:48;;;;;;;6.07;5.63;;;14.10;99.90;;;;;;5068457;28;20189;-68
2022/01/02 09:17:14;;;;;;;6.60;6.07;;;14.20;99.90;;;;;;5067600;28;20427;-68
2022/01/02 09:19:39;;;;;;;5.50;5.00;;;14.20;99.90;;;;;;5072555;28;20256;-68
2022/01/02 09:22:05;;;;;;;4.60;4.27;;;14.40;99.90;;;;;;5071940;28;20284;-68
2022/01/02 09:24:31;;;;;;;3.83;3.43;;;14.30;99.90;;;;;;5069502;28;20241;-68
2022/01/02 09:26:57;;;;;;;3.20;3.00;;;14.10;99.90;;;;;;5070982;28;20425;-75
2022/01/02 09:29:24;;;;;;;3.53;3.33;;;14.10;99.90;;;;;;5073176;28;20498;-68
2022/01/02 09:31:50;;;;;;;3.83;3.50;;;14.10;99.90;;;;;;5071648;28;20509;-67
2022/01/02 09:34:16;;;;;;;4.20;3.80;;;14.10;99.90;;;;;;5072139;28;20443;-68
2022/01/02 09:36:42;;;;;;;3.80;3.47;;;14.10;99.70;;;;;;5060262;28;20432;-67
2022/01/02 09:39:08;;;;;;;4.60;4.20;;;14.10;99.90;;;;;;5034507;28;20455;-67
2022/01/02 09:41:34;;;;;;;7.07;4.47;;;14.10;99.90;;;;;;5062266;28;20664;-69
2022/01/02 09:44:00;;;;;;;4.50;4.20;;;14.10;99.90;;;;;;5065564;28;20209;-73
2022/01/02 09:46:28;;;;;;;5.87;4.43;;;14.10;99.90;;;;;;5081113;28;20233;-65
2022/01/02 09:48:55;;;;;;;5.07;4.77;;;14.10;99.90;;;;;;5071257;28;20472;-66
2022/01/02 09:51:24;;;;;;;60.17;45.53;;;14.10;99.90;;;;;;5063548;28;20420;-68
2022/01/02 09:53:52;;;;;;;71.67;52.13;;;14.20;99.90;;;;;;5065004;28;20456;-69
2022/01/02 09:56:18;;;;;;;26.70;21.73;;;14.70;99.90;;;;;;5070109;28;20571;-69
2022/01/02 09:58:44;;;;;;;37.93;27.83;;;15.50;99.90;;;;;;5067329;28;20423;-70
2022/01/02 10:01:16;;;;;;;22.83;18.30;;;16.20;99.90;;;;;;5066003;28;20423;-70
2022/01/02 10:03:44;;;;;;;19.40;16.33;;;16.80;99.40;;;;;;5071509;28;20181;-70
2022/01/02 10:06:11;;;;;;;18.53;11.30;;;17.30;97.90;;;;;;5071761;28;20451;-70
2022/01/02 10:08:36;;;;;;;7.13;6.53;;;17.40;96.50;;;;;;5072797;28;20415;-69
2022/01/02 10:11:17;;;;;;;7.80;7.10;;;17.70;94.80;;;;;;5071781;28;20919;-79
2022/01/02 10:13:48;;;;;;;6.00;5.50;;;18.00;94.60;;;;;;5067276;28;20226;-70
2022/01/02 10:16:31;;;;;;;5.80;5.23;;;18.00;93.60;;;;;;5065018;28;20436;-69
2022/01/02 10:18:58;;;;;;;5.53;4.93;;;18.20;93.30;;;;;;5053415;28;20420;-70
2022/01/02 10:21:36;;;;;;;4.90;4.50;;;18.30;93.20;;;;;;5056203;28;20432;-70
2022/01/02 10:24:13;;;;;;;14.57;8.67;;;18.10;92.10;;;;;;5066099;28;20454;-81
2022/01/02 10:26:41;;;;;;;20.07;14.13;;;18.00;93.20;;;;;;5061413;28;20439;-73
2022/01/02 10:29:14;;;;;;;23.80;17.47;;;18.20;93.00;;;;;;5071113;28;20472;-70
2022/01/02 10:31:41;;;;;;;15.67;13.30;;;18.30;92.20;;;;;;5070619;28;20500;-70
2022/01/02 10:34:07;;;;;;;5.37;4.63;;;18.30;92.20;;;;;;5057320;28;20780;-69
2022/01/02 10:36:40;;;;;;;5.80;5.30;;;18.30;91.50;;;;;;5060835;28;20442;-67
2022/01/02 10:39:15;;;;;;;5.00;4.70;;;17.90;92.20;;;;;;5071342;28;20407;-69
2022/01/02 10:41:49;;;;;;;5.37;4.97;;;17.50;93.10;;;;;;5070505;28;20445;-68
2022/01/02 10:44:21;;;;;;;5.60;5.20;;;17.20;93.70;;;;;;5063797;28;20467;-67
2022/01/02 10:47:08;;;;;;;5.13;4.77;;;16.70;94.30;;;;;;5070625;28;20471;-69
2022/01/02 10:50:04;;;;;;;4.83;4.53;;;16.40;95.00;;;;;;5071059;28;20641;-68
2022/01/02 10:52:29;;;;;;;4.50;4.13;;;15.90;95.60;;;;;;5071450;28;20461;-69
2022/01/02 10:54:58;;;;;;;4.47;4.17;;;15.70;96.10;;;;;;5051667;28;20454;-68
2022/01/02 10:57:24;;;;;;;5.20;4.80;;;15.50;96.80;;;;;;5064412;28;20768;-68
2022/01/02 10:59:54;;;;;;;5.60;5.20;;;15.30;97.30;;;;;;5090758;28;20416;-68
2022/01/02 11:02:22;;;;;;;5.40;5.10;;;15.10;97.60;;;;;;5055215;28;20421;-67
2022/01/02 11:04:52;;;;;;;4.70;4.30;;;15.00;98.10;;;;;;5069976;28;20468;-68
2022/01/02 11:07:23;;;;;;;6.63;6.03;;;14.80;99.00;;;;;;5069996;28;20417;-67
2022/01/02 11:09:54;;;;;;;4.70;4.40;;;14.80;99.00;;;;;;5061738;28;20426;-66
2022/01/02 11:12:21;;;;;;;4.40;4.10;;;14.80;99.00;;;;;;5050815;28;20985;-67
2022/01/02 11:14:48;;;;;;;4.70;4.40;;;14.70;99.10;;;;;;5041877;28;20448;-67
2022/01/02 11:17:15;;;;;;;4.97;4.67;;;14.60;98.90;;;;;;5049730;28;20413;-67
2022/01/02 11:19:47;;;;;;;5.93;5.20;;;14.60;99.40;;;;;;5051719;28;20469;-68
2022/01/02 11:22:49;;;;;;;4.63;4.23;;;14.70;99.50;;;;;;5064015;28;20423;-70
2022/01/02 11:25:27;;;;;;;5.33;4.93;;;14.70;99.30;;;;;;4998862;28;20880;-67
2022/01/02 11:27:54;;;;;;;5.07;4.40;;;14.60;99.30;;;;;;5033738;28;20422;-67
2022/01/02 11:30:40;;;;;;;84.30;58.70;;;14.60;99.30;;;;;;5050655;28;20789;-67
2022/01/02 11:33:08;;;;;;;17.23;15.00;;;14.70;99.50;;;;;;5060275;28;20411;-73
2022/01/02 11:35:36;;;;;;;5.00;4.60;;;14.70;99.50;;;;;;5033676;28;20441;-67
2022/01/02 11:38:04;;;;;;;4.50;4.20;;;14.80;99.70;;;;;;5051630;28;20835;-67
2022/01/02 11:40:56;;;;;;;5.10;4.60;;;14.70;99.20;;;;;;5049577;28;20421;-69
2022/01/02 11:43:47;;;;;;;5.33;4.87;;;14.80;99.50;;;;;;5069326;28;20435;-68
2022/01/02 11:46:26;;;;;;;4.97;4.57;;;14.80;99.80;;;;;;5070492;28;20485;-68
2022/01/02 11:49:04;;;;;;;4.80;4.40;;;14.90;99.60;;;;;;5071858;28;20475;-68
2022/01/02 11:51:48;;;;;;;5.03;4.60;;;14.90;99.50;;;;;;5070750;28;20433;-68
2022/01/02 11:54:47;;;;;;;4.73;4.43;;;14.90;99.40;;;;;;5059326;28;20432;-67
2022/01/02 11:57:14;;;;;;;4.67;4.33;;;14.90;99.80;;;;;;5054610;28;20430;-68
2022/01/02 11:59:43;;;;;;;5.73;4.60;;;14.80;99.60;;;;;;5066458;28;20435;-68
2022/01/02 12:02:25;;;;;;;5.77;5.37;;;14.80;99.80;;;;;;5073507;28;20418;-75
2022/01/02 12:04:59;;;;;;;5.23;4.83;;;14.80;99.80;;;;;;5074509;28;20561;-68
2022/01/02 12:07:37;;;;;;;542.80;422.00;;;14.70;99.90;;;;;;5073786;28;20534;-68
2022/01/02 12:10:22;;;;;;;14.03;12.60;;;14.80;99.90;;;;;;5064647;28;20507;-68
2022/01/02 12:13:00;;;;;;;5.93;5.10;;;14.80;99.90;;;;;;5069020;28;20433;-67
2022/01/02 12:18:05;;;;;;;6.53;5.47;;;14.70;99.90;;;;;;5070236;28;20933;-68
2022/01/02 12:20:53;;;;;;;5.90;5.27;;;14.70;99.90;;;;;;5073053;28;20795;-69
2022/01/02 12:23:34;;;;;;;5.60;5.10;;;14.70;99.90;;;;;;5066610;28;20936;-68
2022/01/02 12:26:13;;;;;;;7.63;5.50;;;14.70;99.90;;;;;;5090207;28;20551;-68
2022/01/02 12:29:01;;;;;;;6.73;6.13;;;14.60;99.90;;;;;;5070317;28;20427;-69
2022/01/02 12:31:34;;;;;;;7.93;5.70;;;14.60;99.90;;;;;;5069609;28;20909;-75
2022/01/02 12:34:10;;;;;;;5.70;5.23;;;14.60;99.90;;;;;;5073572;28;20431;-69
2022/01/02 12:36:41;;;;;;;5.40;5.00;;;14.60;99.90;;;;;;5074289;28;20429;-68
2022/01/02 12:39:12;;;;;;;223.40;140.10;;;14.60;99.90;;;;;;5074337;28;20424;-68
2022/01/02 12:41:40;;;;;;;61.53;42.87;;;14.60;99.90;;;;;;5074132;28;20429;-70
2022/01/02 12:44:15;;;;;;;17.17;9.90;;;14.70;99.90;;;;;;5072678;28;20422;-67
2022/01/02 12:46:49;;;;;;;5.63;5.03;;;14.60;99.90;;;;;;5055162;28;20496;-70
2022/01/02 12:49:21;;;;;;;5.67;5.30;;;14.60;99.90;;;;;;5071307;28;20442;-68
2022/01/02 12:51:49;;;;;;;5.83;5.33;;;14.60;99.90;;;;;;5072634;28;20417;-70
2022/01/02 12:54:18;;;;;;;5.23;4.80;;;14.60;99.90;;;;;;5072445;28;20408;-69
2022/01/02 12:56:45;;;;;;;9.00;7.73;;;14.60;99.90;;;;;;5072047;28;20508;-68
2022/01/02 12:59:34;;;;;;;6.73;6.10;;;14.60;99.90;;;;;;5053655;28;20784;-78
2022/01/02 13:02:06;;;;;;;9.43;5.00;;;14.70;99.90;;;;;;5069119;28;20888;-69
2022/01/02 13:04:45;;;;;;;5.83;5.20;;;14.60;99.90;;;;;;5054715;28;20450;-69